CAI weather

Cairo International Airport
Cairo, Cairo Governorate, Egypt

Public forecast

Using degrees Celsius for public forecast. Weather courtesy of forecast.io.

Current aviation weather report (METAR) for Cairo International Airport

Retrieved 2020/06/06 15:00 UTC (5 minutes ago):

HECA 061500Z 34008KT CAVOK 35/08 Q1009 NOSIG

Aviation forecast (TAF) for Cairo International Airport

Retrieved 2020/06/06 12:12 UTC (3 hours ago):

TAF HECA 061100Z 0612/0718 07008KT CAVOK